createdAt,value
2023-03-21T00:00:56.587Z,93558.16
2023-03-21T00:01:54.163Z,93573.69
2023-03-21T00:02:51.156Z,93553.94
2023-03-21T00:03:49.423Z,93563.06
2023-03-21T00:04:52.278Z,93563.72
2023-03-21T00:05:53.387Z,93539.88
2023-03-21T00:06:50.704Z,93554.44
2023-03-21T00:07:47.756Z,93554.22
2023-03-21T00:08:44.823Z,93552.25
2023-03-21T00:09:41.456Z,93553.31
2023-03-21T00:10:41.142Z,93543.13
2023-03-21T00:11:40.667Z,93550.16
2023-03-21T00:12:37.772Z,93548.97
2023-03-21T00:13:38.517Z,93521.84
2023-03-21T00:14:38.017Z,93554.81
2023-03-21T00:15:44.367Z,93551.84
2023-03-21T00:16:51.862Z,93553.44
2023-03-21T00:17:50.788Z,93547.28
2023-03-21T00:18:52.325Z,93547.97
2023-03-21T00:19:50.503Z,93547.47
2023-03-21T00:21:35.558Z,93556.03
2023-03-21T00:22:18.700Z,93557.88
2023-03-21T00:23:15.907Z,93558.28
2023-03-21T00:24:12.806Z,93557.16
2023-03-21T00:25:10.633Z,93564.38
2023-03-21T00:26:10.124Z,93469.63
2023-03-21T00:27:43.002Z,93555.34
2023-03-21T00:28:24.613Z,93568.81
2023-03-21T00:29:21.287Z,93559.13
2023-03-21T00:30:18.021Z,93563.59
2023-03-21T00:31:14.866Z,93533.00
2023-03-21T00:32:11.549Z,93567.16
2023-03-21T00:33:21.761Z,93533.09
2023-03-21T00:34:26.799Z,93561.94
2023-03-21T00:35:58.003Z,93555.91
2023-03-21T00:36:50.047Z,93563.06
2023-03-21T00:37:46.910Z,93560.34
2023-03-21T00:38:43.549Z,93563.22
2023-03-21T00:39:40.550Z,93562.28
2023-03-21T00:40:43.750Z,93556.59
2023-03-21T00:41:43.904Z,93567.69
2023-03-21T00:42:40.561Z,93561.81
2023-03-21T00:43:37.518Z,93566.56
2023-03-21T00:44:36.964Z,93563.22
2023-03-21T00:45:33.565Z,93561.19
2023-03-21T00:46:42.766Z,93561.72
2023-03-21T00:47:43.776Z,93550.81
2023-03-21T00:48:40.566Z,93558.34
2023-03-21T00:49:38.590Z,93544.03
2023-03-21T00:50:35.231Z,93561.31
2023-03-21T00:51:32.051Z,93555.09
2023-03-21T00:52:40.244Z,93552.69
2023-03-21T00:53:37.286Z,93544.44
2023-03-21T00:54:35.234Z,93549.88
2023-03-21T00:55:32.084Z,93549.53
2023-03-21T00:56:28.748Z,93549.03
2023-03-21T00:57:38.037Z,93542.97
2023-03-21T00:58:35.805Z,93538.06
2023-03-21T00:59:32.422Z,93541.91
2023-03-21T01:00:29.596Z,93540.38
2023-03-21T01:01:31.877Z,93551.16
2023-03-21T01:02:28.657Z,93542.22
2023-03-21T01:03:26.756Z,93500.16
2023-03-21T01:04:26.819Z,93529.75
2023-03-21T01:05:44.325Z,93510.47
2023-03-21T01:06:43.193Z,93544.72
2023-03-21T01:07:39.854Z,93544.88
2023-03-21T01:08:55.006Z,93544.00
2023-03-21T01:09:51.635Z,93434.34
2023-03-21T01:10:50.104Z,93549.53
2023-03-21T01:11:46.879Z,93542.91
2023-03-21T01:12:43.546Z,93524.53
2023-03-21T01:13:47.453Z,93550.16
2023-03-21T01:14:50.029Z,93539.31
2023-03-21T01:15:49.764Z,93548.94
2023-03-21T01:16:46.588Z,93539.47
2023-03-21T01:17:43.186Z,93543.84
2023-03-21T01:18:41.653Z,93545.16
2023-03-21T01:19:51.234Z,93535.78
2023-03-21T01:20:49.393Z,93544.97
2023-03-21T01:21:46.063Z,93540.34
2023-03-21T01:22:42.727Z,93545.81
2023-03-21T01:23:41.440Z,93544.19
2023-03-21T01:24:46.840Z,93536.63
2023-03-21T01:25:50.434Z,93533.72
2023-03-21T01:26:47.115Z,93536.63
2023-03-21T01:27:43.718Z,93530.00
2023-03-21T01:28:42.380Z,93534.13
2023-03-21T01:29:39.010Z,93526.56
2023-03-21T01:30:41.664Z,93511.09
2023-03-21T01:31:39.215Z,93530.34
2023-03-21T01:32:35.888Z,93532.16
2023-03-21T01:33:33.392Z,93530.00
2023-03-21T01:34:30.048Z,93521.13
2023-03-21T01:35:27.021Z,93528.78
2023-03-21T01:36:27.175Z,93528.72
2023-03-21T01:37:26.408Z,93525.53
2023-03-21T01:38:23.541Z,93469.00
2023-03-21T01:39:20.230Z,93523.94
2023-03-21T01:40:22.535Z,93522.09
2023-03-21T01:41:42.060Z,93535.13
2023-03-21T01:42:39.790Z,93522.00
2023-03-21T01:43:37.037Z,93523.81
2023-03-21T01:44:52.725Z,93524.69
2023-03-21T01:46:10.659Z,93527.09
2023-03-21T01:47:12.476Z,93518.94
2023-03-21T01:48:09.638Z,93527.63
2023-03-21T01:49:34.261Z,93526.50
2023-03-21T01:50:30.982Z,93524.53
2023-03-21T01:51:29.382Z,93535.25
2023-03-21T01:52:37.569Z,93526.88
2023-03-21T01:53:38.214Z,93509.03
2023-03-21T01:54:40.001Z,93504.06
2023-03-21T01:55:37.632Z,93526.56
2023-03-21T01:56:37.652Z,93522.09
2023-03-21T01:57:49.446Z,93494.78
2023-03-21T01:58:55.320Z,93519.47
2023-03-21T01:59:54.512Z,93518.16
2023-03-21T02:00:52.447Z,93522.97
2023-03-21T02:01:51.370Z,93481.34
2023-03-21T02:02:52.562Z,93521.78
2023-03-21T02:03:51.710Z,93490.44
2023-03-21T02:04:51.175Z,93528.97
2023-03-21T02:06:00.832Z,93525.22
2023-03-21T02:07:07.533Z,93520.06
2023-03-21T02:08:04.146Z,93518.69
2023-03-21T02:09:04.636Z,93525.91
2023-03-21T02:10:04.988Z,93517.81
2023-03-21T02:11:01.629Z,93522.28
2023-03-21T02:11:58.613Z,93515.75
2023-03-21T02:12:59.283Z,93524.09
2023-03-21T02:14:05.923Z,93521.78
2023-03-21T02:15:04.532Z,93519.78
2023-03-21T02:16:13.753Z,93527.25
2023-03-21T02:17:34.938Z,93525.97
2023-03-21T02:18:38.984Z,93519.72
2023-03-21T02:19:41.685Z,93516.00
2023-03-21T02:21:09.517Z,93523.81
2023-03-21T02:22:37.965Z,93520.13
2023-03-21T02:24:05.347Z,93519.00
2023-03-21T02:25:22.073Z,93523.56
2023-03-21T02:27:03.394Z,93515.06
2023-03-21T02:28:39.479Z,93514.63
2023-03-21T02:29:38.789Z,93519.84
2023-03-21T02:31:06.659Z,93513.09
2023-03-21T02:32:36.874Z,93515.59
2023-03-21T02:34:09.195Z,93514.91
2023-03-21T02:35:17.622Z,93510.94
2023-03-21T02:36:22.417Z,93506.91
2023-03-21T02:38:01.445Z,93508.91
2023-03-21T02:39:12.199Z,93509.31
2023-03-21T02:40:11.925Z,93509.06
2023-03-21T02:41:20.367Z,93515.50
2023-03-21T02:42:20.478Z,93514.25
2023-03-21T02:43:37.256Z,93504.13
2023-03-21T02:44:50.302Z,93513.91
2023-03-21T02:46:07.132Z,93516.88
2023-03-21T02:47:07.826Z,93517.38
2023-03-21T02:48:17.359Z,93514.34
2023-03-21T02:49:30.223Z,93507.38
2023-03-21T02:50:33.688Z,93509.56
2023-03-21T02:51:32.903Z,93508.81
2023-03-21T02:52:39.273Z,93501.00
2023-03-21T02:53:40.994Z,93505.47
2023-03-21T02:54:47.536Z,93489.88
2023-03-21T02:55:47.064Z,93502.69
2023-03-21T02:56:46.331Z,93507.00
2023-03-21T02:57:46.458Z,93498.88
2023-03-21T02:58:43.956Z,93503.31
2023-03-21T02:59:53.248Z,93497.94
2023-03-21T03:00:55.472Z,93507.03
2023-03-21T03:01:53.643Z,93499.78
2023-03-21T03:03:02.593Z,93476.00
2023-03-21T03:04:03.487Z,93499.41
2023-03-21T03:05:00.653Z,93510.84
2023-03-21T03:06:00.828Z,93493.47
2023-03-21T03:07:24.206Z,93495.66
2023-03-21T03:08:52.898Z,93490.94
2023-03-21T03:10:27.699Z,93499.97
2023-03-21T03:11:30.342Z,93502.03
2023-03-21T03:12:54.601Z,93498.75
2023-03-21T03:13:58.111Z,93492.66
2023-03-21T03:15:11.539Z,93493.84
2023-03-21T03:16:38.806Z,93496.00
2023-03-21T03:18:01.505Z,93498.31
2023-03-21T03:19:01.784Z,93498.38
2023-03-21T03:20:17.466Z,93504.22
2023-03-21T03:21:40.274Z,93504.47
2023-03-21T03:23:03.552Z,93495.38
2023-03-21T03:24:17.727Z,93495.47
2023-03-21T03:25:29.795Z,93503.28
2023-03-21T03:26:41.254Z,93453.75
2023-03-21T03:27:42.802Z,93501.63
2023-03-21T03:28:44.151Z,93493.56
2023-03-21T03:29:44.715Z,93500.75
2023-03-21T03:30:51.311Z,93498.41
2023-03-21T03:32:04.184Z,93478.66
2023-03-21T03:33:06.630Z,93479.06
2023-03-21T03:34:10.938Z,93511.59
2023-03-21T03:35:08.751Z,93484.78
2023-03-21T03:36:10.874Z,93520.38
2023-03-21T03:37:11.207Z,93516.41
2023-03-21T03:38:09.329Z,93520.94
2023-03-21T03:39:09.430Z,93515.09
2023-03-21T03:40:11.009Z,93515.47
2023-03-21T03:41:19.483Z,93506.50
2023-03-21T03:42:28.706Z,93513.38
2023-03-21T03:43:41.145Z,93512.13
2023-03-21T03:44:38.472Z,93506.38
2023-03-21T03:45:41.918Z,93506.63
2023-03-21T03:46:51.131Z,93474.75
2023-03-21T03:48:28.316Z,93510.03
2023-03-21T03:49:29.476Z,93513.25
2023-03-21T03:50:30.922Z,93512.38
2023-03-21T03:51:50.065Z,93509.50
2023-03-21T03:52:56.985Z,93470.91
2023-03-21T03:54:01.966Z,93507.19
2023-03-21T03:54:59.094Z,93506.16
2023-03-21T03:55:56.914Z,93505.63
2023-03-21T03:56:54.281Z,93498.97
2023-03-21T03:57:50.960Z,93508.19
2023-03-21T03:58:47.780Z,93508.72
2023-03-21T03:59:46.669Z,93499.53
2023-03-21T04:00:43.247Z,93499.75
2023-03-21T04:01:39.871Z,93504.75
2023-03-21T04:02:36.488Z,93502.31
2023-03-21T04:03:47.856Z,93509.84
2023-03-21T04:04:46.307Z,93503.09
2023-03-21T04:05:46.313Z,93477.53
2023-03-21T04:06:51.708Z,93504.41
2023-03-21T04:07:51.029Z,93504.53
2023-03-21T04:08:48.412Z,93508.94
2023-03-21T04:09:45.602Z,93505.63
2023-03-21T04:10:43.470Z,93506.16
2023-03-21T04:11:40.174Z,93502.19
2023-03-21T04:12:36.874Z,93508.72
2023-03-21T04:13:34.037Z,93506.94
2023-03-21T04:14:43.549Z,93504.50
2023-03-21T04:15:41.505Z,93509.38
2023-03-21T04:16:38.995Z,93468.00
2023-03-21T04:17:35.633Z,93500.75
2023-03-21T04:18:32.445Z,93499.31
2023-03-21T04:19:29.018Z,93494.78
2023-03-21T04:20:36.111Z,93496.09
2023-03-21T04:21:33.716Z,93477.84
2023-03-21T04:22:31.243Z,93500.09
2023-03-21T04:23:29.298Z,93496.69
2023-03-21T04:24:26.695Z,93495.44
2023-03-21T04:25:32.670Z,93456.72
2023-03-21T04:26:33.094Z,93460.03
2023-03-21T04:27:30.489Z,93504.84
2023-03-21T04:28:27.138Z,93499.75
2023-03-21T04:29:24.190Z,93496.09
2023-03-21T04:30:20.936Z,93499.63
2023-03-21T04:31:25.505Z,93477.84
2023-03-21T04:32:24.666Z,93484.59
2023-03-21T04:33:21.256Z,93486.38
2023-03-21T04:34:17.944Z,93485.50
2023-03-21T04:35:14.563Z,93413.50
2023-03-21T04:36:24.822Z,93491.22
2023-03-21T04:37:23.547Z,93498.00
2023-03-21T04:38:20.100Z,93486.38
2023-03-21T04:39:17.654Z,93500.66
2023-03-21T04:40:17.863Z,93479.63
2023-03-21T04:41:14.738Z,93489.69
2023-03-21T04:42:11.331Z,93486.03
2023-03-21T04:43:07.895Z,93482.72
2023-03-21T04:44:04.569Z,93445.78
2023-03-21T04:45:01.893Z,93486.81
2023-03-21T04:45:58.588Z,93487.38
2023-03-21T04:46:55.271Z,93506.16
2023-03-21T04:47:51.895Z,93467.56
2023-03-21T04:48:48.994Z,93502.97
2023-03-21T04:49:48.074Z,93500.63
2023-03-21T04:50:45.394Z,93502.41
2023-03-21T04:51:44.054Z,93507.63
2023-03-21T04:52:40.797Z,93518.44
2023-03-21T04:53:38.448Z,93504.72
2023-03-21T04:54:35.558Z,93513.44
2023-03-21T04:55:32.472Z,93389.84
2023-03-21T04:56:34.214Z,93517.97
2023-03-21T04:57:31.130Z,93509.22
2023-03-21T04:58:27.707Z,93510.22
2023-03-21T04:59:24.353Z,93519.75
2023-03-21T05:00:21.160Z,93478.75
2023-03-21T05:01:20.812Z,93515.78
2023-03-21T05:02:17.449Z,93507.72
2023-03-21T05:03:19.785Z,93512.78
2023-03-21T05:04:17.018Z,93517.72
2023-03-21T05:05:13.755Z,93521.16
2023-03-21T05:06:10.860Z,93514.09
2023-03-21T05:07:07.956Z,93515.50
2023-03-21T05:08:06.371Z,93507.91
2023-03-21T05:09:07.265Z,93456.88
2023-03-21T05:10:05.140Z,93514.38
2023-03-21T05:11:02.890Z,93515.28
2023-03-21T05:11:59.465Z,93507.81
2023-03-21T05:12:56.160Z,93513.16
2023-03-21T05:13:53.128Z,93467.72
2023-03-21T05:14:49.742Z,93508.09
2023-03-21T05:15:46.389Z,93504.03
2023-03-21T05:16:56.167Z,93502.63
2023-03-21T05:17:52.864Z,93496.06
2023-03-21T05:18:50.738Z,93495.47
2023-03-21T05:19:47.358Z,93489.25
2023-03-21T05:20:43.964Z,93485.84
2023-03-21T05:21:45.163Z,93499.94
2023-03-21T05:22:42.590Z,93490.31
2023-03-21T05:23:42.181Z,93498.66
2023-03-21T05:24:42.088Z,93495.25
2023-03-21T05:25:40.321Z,93489.56
2023-03-21T05:26:37.142Z,93501.44
2023-03-21T05:27:34.261Z,93497.31
2023-03-21T05:28:31.815Z,93502.63
2023-03-21T05:29:31.329Z,93499.38
2023-03-21T05:30:28.763Z,93495.59
2023-03-21T05:31:25.480Z,93497.44
2023-03-21T05:32:22.077Z,93492.31
2023-03-21T05:33:18.919Z,93479.75
2023-03-21T05:34:15.687Z,93492.56
2023-03-21T05:35:13.196Z,93493.69
2023-03-21T05:36:10.742Z,93484.06
2023-03-21T05:37:07.371Z,93494.88
2023-03-21T05:38:03.985Z,93486.81
2023-03-21T05:39:01.952Z,93489.66
2023-03-21T05:39:58.637Z,93454.59
2023-03-21T05:40:55.495Z,93492.91
2023-03-21T05:41:52.144Z,93485.69
2023-03-21T05:42:49.176Z,93487.91
2023-03-21T05:43:45.913Z,93459.84
2023-03-21T05:44:42.576Z,93493.59
2023-03-21T05:45:39.294Z,93493.53
2023-03-21T05:46:36.098Z,93493.84
2023-03-21T05:47:32.869Z,93495.31
2023-03-21T05:48:29.500Z,93495.47
2023-03-21T05:49:27.056Z,93470.22
2023-03-21T05:50:23.791Z,93484.97
2023-03-21T05:51:20.616Z,93500.56
2023-03-21T05:52:17.361Z,93498.56
2023-03-21T05:53:14.030Z,93506.38
2023-03-21T05:54:16.631Z,93496.56
2023-03-21T05:55:13.362Z,93500.44
2023-03-21T05:56:10.407Z,93497.09
2023-03-21T05:57:07.829Z,93497.75
2023-03-21T05:58:04.710Z,93490.13
2023-03-21T05:59:01.444Z,93505.75
2023-03-21T05:59:58.159Z,93493.44
2023-03-21T06:00:55.040Z,93494.66
2023-03-21T06:01:51.664Z,93493.31
2023-03-21T06:02:48.255Z,93467.97
2023-03-21T06:03:44.957Z,93494.09
2023-03-21T06:04:41.647Z,93491.34
2023-03-21T06:05:38.596Z,93478.19
2023-03-21T06:06:35.453Z,93495.88
2023-03-21T06:07:33.012Z,93497.00
2023-03-21T06:08:30.481Z,93501.66
2023-03-21T06:09:27.214Z,93499.34
2023-03-21T06:10:23.917Z,93498.38
2023-03-21T06:11:26.725Z,93501.25
2023-03-21T06:12:23.581Z,93498.16
2023-03-21T06:13:20.159Z,93494.09
2023-03-21T06:14:17.641Z,93499.84
2023-03-21T06:15:14.553Z,93506.75
2023-03-21T06:16:11.234Z,93494.84
2023-03-21T06:17:07.905Z,93497.38
2023-03-21T06:18:04.604Z,93491.22
2023-03-21T06:19:01.159Z,93511.91
2023-03-21T06:19:58.495Z,93500.56
2023-03-21T06:20:55.137Z,93503.53
2023-03-21T06:21:51.906Z,93475.16
2023-03-21T06:22:48.525Z,93497.97
2023-03-21T06:23:45.318Z,93493.56
2023-03-21T06:24:41.918Z,93489.88
2023-03-21T06:25:38.606Z,93493.88
2023-03-21T06:26:35.594Z,93490.16
2023-03-21T06:27:32.227Z,93489.25
2023-03-21T06:28:28.958Z,93443.59
2023-03-21T06:29:25.696Z,93493.47
2023-03-21T06:30:22.438Z,93487.34
2023-03-21T06:31:22.633Z,93300.84
2023-03-21T06:32:19.797Z,93469.25
2023-03-21T06:33:16.427Z,93469.59
2023-03-21T06:34:13.524Z,93487.63
2023-03-21T06:35:10.319Z,93493.56
2023-03-21T06:36:07.341Z,93485.38
2023-03-21T06:37:04.468Z,93486.78
2023-03-21T06:38:01.274Z,93477.63
2023-03-21T06:38:57.890Z,93482.38
2023-03-21T06:39:55.553Z,93452.84
2023-03-21T06:40:52.732Z,93481.09
2023-03-21T06:41:49.380Z,93487.00
2023-03-21T06:42:45.937Z,93487.28
2023-03-21T06:43:43.239Z,93486.22
2023-03-21T06:44:40.146Z,93491.72
2023-03-21T06:45:37.118Z,93492.25
2023-03-21T06:46:33.867Z,93484.44
2023-03-21T06:47:30.724Z,93484.53
2023-03-21T06:48:28.161Z,93488.66
2023-03-21T06:49:24.941Z,93490.97
2023-03-21T06:50:21.938Z,93485.22
2023-03-21T06:51:19.996Z,93447.25
2023-03-21T06:52:16.619Z,93482.34
2023-03-21T06:53:13.220Z,93486.91
2023-03-21T06:54:10.402Z,93485.53
2023-03-21T06:55:07.445Z,93471.66
2023-03-21T06:56:04.251Z,93486.13
2023-03-21T06:57:00.943Z,93459.59
2023-03-21T06:57:57.664Z,93485.50
2023-03-21T06:58:54.340Z,93486.25
2023-03-21T06:59:51.191Z,93449.38
2023-03-21T07:00:48.213Z,93475.75
2023-03-21T07:01:44.893Z,93494.09
2023-03-21T07:02:41.877Z,93451.81
2023-03-21T07:03:39.582Z,93492.72
2023-03-21T07:04:36.183Z,93487.88
2023-03-21T07:05:32.762Z,93371.19
2023-03-21T07:06:29.381Z,93498.88
2023-03-21T07:07:26.427Z,93488.75
2023-03-21T07:08:23.075Z,93499.50
2023-03-21T07:09:21.718Z,93519.56
2023-03-21T07:10:18.634Z,93496.31
2023-03-21T07:11:15.483Z,93493.78
2023-03-21T07:12:12.174Z,93504.88
2023-03-21T07:13:08.784Z,93511.41
2023-03-21T07:14:06.535Z,93512.38
2023-03-21T07:15:04.503Z,93512.34
2023-03-21T07:16:01.136Z,93510.72
2023-03-21T07:16:57.812Z,93511.72
2023-03-21T07:17:54.356Z,93516.19
2023-03-21T07:18:51.878Z,93515.41
2023-03-21T07:19:48.552Z,93517.97
2023-03-21T07:20:51.171Z,93515.53
2023-03-21T07:21:47.850Z,93516.00
2023-03-21T07:22:44.720Z,93513.63
2023-03-21T07:23:41.505Z,93514.06
2023-03-21T07:24:38.096Z,93506.56
2023-03-21T07:25:34.863Z,93512.38
2023-03-21T07:26:31.466Z,93512.50
2023-03-21T07:27:28.086Z,93475.47
2023-03-21T07:28:25.118Z,93515.59
2023-03-21T07:29:23.235Z,93479.81
2023-03-21T07:30:21.584Z,93516.25
2023-03-21T07:31:19.531Z,93510.66
2023-03-21T07:32:16.610Z,93510.66
2023-03-21T07:33:13.229Z,93523.25
2023-03-21T07:34:09.840Z,93500.44
2023-03-21T07:35:08.702Z,93526.88
2023-03-21T07:36:10.918Z,93522.56
2023-03-21T07:37:07.874Z,93522.78
2023-03-21T07:38:05.417Z,93521.69
2023-03-21T07:39:02.011Z,93512.28
2023-03-21T07:39:58.737Z,93518.56
2023-03-21T07:40:55.466Z,93515.06
2023-03-21T07:41:52.134Z,93517.03
2023-03-21T07:42:50.875Z,93520.88
2023-03-21T07:43:47.566Z,93514.69
2023-03-21T07:44:44.351Z,93515.53
2023-03-21T07:45:42.741Z,93510.41
2023-03-21T07:46:39.407Z,93503.06
2023-03-21T07:47:36.084Z,93511.13
2023-03-21T07:48:32.801Z,93513.16
2023-03-21T07:49:29.656Z,93512.00
2023-03-21T07:50:26.430Z,93503.50
2023-03-21T07:51:23.134Z,93510.84
2023-03-21T07:52:22.811Z,93512.16
2023-03-21T07:53:20.185Z,93450.13
2023-03-21T07:54:19.336Z,93519.25
2023-03-21T07:55:19.725Z,93505.22
2023-03-21T07:56:16.337Z,93514.75
2023-03-21T07:57:13.802Z,93517.34
2023-03-21T07:58:10.528Z,93513.16
2023-03-21T07:59:08.205Z,93518.00
2023-03-21T08:00:06.800Z,93443.78
2023-03-21T08:01:03.376Z,93518.13
2023-03-21T08:02:00.004Z,93477.72
2023-03-21T08:02:59.104Z,93513.00
2023-03-21T08:03:55.974Z,93510.09
2023-03-21T08:04:52.781Z,93504.28
2023-03-21T08:05:49.780Z,93482.06
2023-03-21T08:06:46.402Z,93508.53
2023-03-21T08:07:43.008Z,93498.06
2023-03-21T08:08:40.332Z,93475.50
2023-03-21T08:09:37.381Z,93510.53
2023-03-21T08:10:34.481Z,93511.00
2023-03-21T08:11:33.948Z,93509.63
2023-03-21T08:12:30.749Z,93513.63
2023-03-21T08:13:27.811Z,93504.41
2023-03-21T08:14:24.404Z,93509.91
2023-03-21T08:15:21.664Z,93511.88
2023-03-21T08:16:18.628Z,93505.72
2023-03-21T08:17:15.400Z,93450.28
2023-03-21T08:18:12.026Z,93507.75
2023-03-21T08:19:08.665Z,93495.09
2023-03-21T08:20:08.376Z,93506.06
2023-03-21T08:21:05.278Z,93468.47
2023-03-21T08:22:02.338Z,93471.75
2023-03-21T08:22:58.897Z,93499.09
2023-03-21T08:23:55.730Z,93505.16
2023-03-21T08:24:52.572Z,93506.06
2023-03-21T08:25:55.961Z,93498.69
2023-03-21T08:26:52.560Z,93501.84
2023-03-21T08:27:51.209Z,93478.53
2023-03-21T08:28:47.892Z,93502.56
2023-03-21T08:29:44.624Z,93506.25
2023-03-21T08:30:41.404Z,93507.06
2023-03-21T08:31:40.202Z,93504.47
2023-03-21T08:32:38.726Z,93501.31
2023-03-21T08:33:35.508Z,93504.03
2023-03-21T08:34:32.376Z,93504.34
2023-03-21T08:35:29.776Z,93497.50
2023-03-21T08:36:26.623Z,93505.22
2023-03-21T08:37:23.289Z,93405.31
2023-03-21T08:38:19.912Z,93504.09
2023-03-21T08:39:16.552Z,93499.88
2023-03-21T08:40:16.131Z,93497.41
2023-03-21T08:41:12.808Z,93501.22
2023-03-21T08:42:09.376Z,93495.22
2023-03-21T08:43:06.242Z,93494.88
2023-03-21T08:44:05.847Z,93497.63
2023-03-21T08:45:02.593Z,93492.03
2023-03-21T08:45:59.371Z,93472.53
2023-03-21T08:46:56.149Z,93491.25
2023-03-21T08:47:53.817Z,93495.50
2023-03-21T08:48:50.431Z,93493.59
2023-03-21T08:49:47.143Z,93491.09
2023-03-21T08:50:43.763Z,93494.25
2023-03-21T08:51:41.280Z,93493.06
2023-03-21T08:52:37.995Z,93465.63
2023-03-21T08:53:34.725Z,93495.41
2023-03-21T08:54:31.477Z,93477.97
2023-03-21T08:55:28.226Z,93481.63
2023-03-21T08:56:25.426Z,93493.56
2023-03-21T08:57:22.092Z,93498.03
2023-03-21T08:58:18.745Z,93498.06
2023-03-21T08:59:15.725Z,93472.53
2023-03-21T09:00:18.332Z,93499.56
2023-03-21T09:01:15.659Z,93499.47
2023-03-21T09:02:15.076Z,93499.78
2023-03-21T09:03:11.825Z,93492.81
2023-03-21T09:04:11.116Z,93494.88
2023-03-21T09:05:08.772Z,93494.50
2023-03-21T09:06:05.525Z,93493.31
2023-03-21T09:07:04.865Z,93498.69
2023-03-21T09:08:01.734Z,93497.41
2023-03-21T09:08:58.480Z,93482.84
2023-03-21T09:10:14.896Z,93503.75
2023-03-21T09:11:11.885Z,93499.06
2023-03-21T09:12:08.791Z,93500.47
2023-03-21T09:13:05.481Z,93494.06
2023-03-21T09:14:02.130Z,93472.25
2023-03-21T09:14:58.957Z,93487.94
2023-03-21T09:15:58.293Z,93491.41
2023-03-21T09:16:54.990Z,93488.41
2023-03-21T09:17:57.086Z,93492.25
2023-03-21T09:18:56.933Z,93459.13
2023-03-21T09:19:53.581Z,93489.28
2023-03-21T09:20:50.614Z,93486.69
2023-03-21T09:21:47.864Z,93456.81
2023-03-21T09:22:49.084Z,93476.03
2023-03-21T09:23:46.383Z,93472.13
2023-03-21T09:24:46.048Z,93469.34
2023-03-21T09:25:45.708Z,93470.00
2023-03-21T09:26:44.049Z,93444.34
2023-03-21T09:27:42.694Z,93479.72
2023-03-21T09:28:40.591Z,93474.41
2023-03-21T09:29:37.318Z,93473.31
2023-03-21T09:30:36.862Z,93450.19
2023-03-21T09:31:33.501Z,93474.44
2023-03-21T09:32:30.629Z,93465.97
2023-03-21T09:33:28.362Z,93436.38
2023-03-21T09:34:26.395Z,93474.47
2023-03-21T09:35:24.867Z,93472.44
2023-03-21T09:36:25.020Z,93411.75
2023-03-21T09:37:22.350Z,93424.13
2023-03-21T09:38:19.405Z,93462.69
2023-03-21T09:39:16.802Z,93461.19
2023-03-21T09:40:31.068Z,93457.00
2023-03-21T09:41:38.868Z,93428.94
2023-03-21T09:42:49.122Z,93455.84
2023-03-21T09:43:53.871Z,93438.56
2023-03-21T09:45:01.861Z,93458.16
2023-03-21T09:46:24.046Z,93458.50
2023-03-21T09:47:37.726Z,93424.31
2023-03-21T09:48:54.375Z,93455.53
2023-03-21T09:50:07.741Z,93417.47
2023-03-21T09:51:18.038Z,93445.94
2023-03-21T09:52:57.135Z,93452.09
2023-03-21T09:53:57.719Z,93419.00
2023-03-21T09:54:55.741Z,93439.72
2023-03-21T09:55:54.158Z,93428.19
2023-03-21T09:56:54.815Z,93420.53
2023-03-21T09:58:02.969Z,93416.69
2023-03-21T09:59:01.577Z,93439.00
2023-03-21T10:00:08.019Z,93435.16
2023-03-21T10:01:41.736Z,93431.34
2023-03-21T10:02:41.667Z,93428.25
2023-03-21T10:03:38.458Z,93427.06
2023-03-21T10:04:37.843Z,93396.75
2023-03-21T10:05:40.559Z,93439.00
2023-03-21T10:06:41.326Z,93412.91
2023-03-21T10:07:42.498Z,93421.75
2023-03-21T10:08:42.089Z,93430.94
2023-03-21T10:09:41.710Z,93423.28
2023-03-21T10:10:45.477Z,93423.66
2023-03-21T10:11:50.525Z,93423.66
2023-03-21T10:12:49.376Z,93377.56
2023-03-21T10:14:12.702Z,93422.88
2023-03-21T10:15:16.303Z,93416.72
2023-03-21T10:16:25.323Z,93406.72
2023-03-21T10:17:43.195Z,93417.88
2023-03-21T10:18:42.916Z,93432.84
2023-03-21T10:19:39.861Z,93423.97
2023-03-21T10:20:38.858Z,93397.47
2023-03-21T10:22:58.208Z,93433.06
2023-03-21T10:23:57.482Z,93425.84
2023-03-21T10:24:54.140Z,93421.22
2023-03-21T10:25:58.454Z,93433.06
2023-03-21T10:26:56.355Z,93430.47
2023-03-21T10:27:53.114Z,93431.81
2023-03-21T10:28:53.341Z,93432.75
2023-03-21T10:29:53.322Z,93383.78
2023-03-21T10:30:56.985Z,93430.00
2023-03-21T10:31:54.729Z,93429.28
2023-03-21T10:32:51.491Z,93425.13
2023-03-21T10:33:50.696Z,93419.78
2023-03-21T10:36:06.976Z,93415.97
2023-03-21T10:37:05.755Z,93415.97
2023-03-21T10:38:03.582Z,93423.28
2023-03-21T10:39:07.951Z,93413.28
2023-03-21T10:40:07.693Z,93415.97
2023-03-21T10:41:04.397Z,93416.72
2023-03-21T10:42:01.344Z,93420.16
2023-03-21T10:43:16.710Z,93416.34
2023-03-21T10:44:16.860Z,93424.78
2023-03-21T10:45:19.531Z,93430.94
2023-03-21T10:46:24.270Z,93419.81
2023-03-21T10:47:23.150Z,93430.53
2023-03-21T10:48:21.089Z,93386.00
2023-03-21T10:49:19.053Z,93418.25
2023-03-21T10:50:20.451Z,93413.88
2023-03-21T10:51:20.875Z,93412.94
2023-03-21T10:52:23.317Z,93389.66
2023-03-21T10:53:42.941Z,93411.75
2023-03-21T10:54:40.063Z,93411.66
2023-03-21T10:55:41.939Z,93402.97
2023-03-21T10:56:43.925Z,93410.28
2023-03-21T10:57:40.846Z,93391.97
2023-03-21T10:58:49.147Z,93419.31
2023-03-21T10:59:51.590Z,93409.16
2023-03-21T11:00:48.434Z,93415.72
2023-03-21T11:01:49.876Z,93370.41
2023-03-21T11:02:50.318Z,93408.00
2023-03-21T11:03:47.120Z,93407.56
2023-03-21T11:04:45.000Z,93387.91
2023-03-21T11:05:42.557Z,93411.47
2023-03-21T11:06:41.424Z,93380.75
2023-03-21T11:07:38.131Z,93419.72
2023-03-21T11:08:41.918Z,93416.16
2023-03-21T11:09:45.145Z,93420.03
2023-03-21T11:10:59.650Z,93417.00
2023-03-21T11:12:09.307Z,93414.19
2023-03-21T11:13:16.844Z,93406.25
2023-03-21T11:14:41.146Z,93414.72
2023-03-21T11:15:38.157Z,93414.22
2023-03-21T11:16:43.806Z,93408.31
2023-03-21T11:17:40.743Z,93383.19
2023-03-21T11:18:43.010Z,93407.22
2023-03-21T11:19:39.799Z,93408.00
2023-03-21T11:20:45.162Z,93398.66
2023-03-21T11:21:42.614Z,93402.16
2023-03-21T11:22:42.576Z,93396.28
2023-03-21T11:23:44.640Z,93381.13
2023-03-21T11:24:47.166Z,93389.22
2023-03-21T11:25:43.822Z,93395.78
2023-03-21T11:26:43.627Z,93355.03
2023-03-21T11:27:49.103Z,93391.50
2023-03-21T11:28:46.704Z,93385.88
2023-03-21T11:29:51.489Z,93380.72
2023-03-21T11:30:59.789Z,93393.34
2023-03-21T11:32:19.668Z,93382.78
2023-03-21T11:33:19.637Z,93375.59
2023-03-21T11:34:47.714Z,93381.88
2023-03-21T11:35:44.418Z,93381.00
2023-03-21T11:36:41.613Z,93376.72
2023-03-21T11:37:46.082Z,93370.84
2023-03-21T11:38:42.645Z,93372.88
2023-03-21T11:39:43.760Z,93375.16
2023-03-21T11:40:53.741Z,93360.72
2023-03-21T11:41:51.952Z,93335.31
2023-03-21T11:42:53.913Z,93357.59
2023-03-21T11:43:54.696Z,93361.75
2023-03-21T11:45:00.579Z,93362.41
2023-03-21T11:46:06.191Z,93353.59
2023-03-21T11:47:03.093Z,93351.06
2023-03-21T11:48:02.338Z,93354.66
2023-03-21T11:49:00.769Z,93353.72
2023-03-21T11:50:04.553Z,93361.56
2023-03-21T11:51:16.167Z,93318.38
2023-03-21T11:52:32.365Z,93360.22
2023-03-21T11:54:10.041Z,93350.63
2023-03-21T11:55:18.116Z,93340.88
2023-03-21T11:56:28.155Z,93353.81
2023-03-21T11:57:32.160Z,93345.41
2023-03-21T11:58:32.909Z,93347.31
2023-03-21T11:59:58.190Z,93338.53